sensor_id;sensor_type;location;lat;lon;timestamp;pressure;altitude;pressure_sealevel;temperature;humidity
68107;BME280;54892;47.488;19.026;2022-10-30T00:02:18;100827.59;;;12.63;98.30
68107;BME280;54892;47.488;19.026;2022-10-30T00:05:23;100822.31;;;12.63;98.16
68107;BME280;54892;47.488;19.026;2022-10-30T00:08:28;100817.00;;;12.63;98.27
68107;BME280;54892;47.488;19.026;2022-10-30T00:11:31;100824.03;;;12.75;97.72
68107;BME280;54892;47.488;19.026;2022-10-30T00:14:35;100817.34;;;12.67;97.44
68107;BME280;54892;47.488;19.026;2022-10-30T00:17:38;100811.53;;;12.70;96.60
68107;BME280;54892;47.488;19.026;2022-10-30T00:20:42;100811.13;;;12.56;97.83
68107;BME280;54892;47.488;19.026;2022-10-30T00:23:48;100814.13;;;12.65;97.38
68107;BME280;54892;47.488;19.026;2022-10-30T00:26:51;100812.25;;;12.60;97.45
68107;BME280;54892;47.488;19.026;2022-10-30T00:29:54;100815.59;;;12.56;97.87
68107;BME280;54892;47.488;19.026;2022-10-30T00:32:58;100816.13;;;12.53;98.19
68107;BME280;54892;47.488;19.026;2022-10-30T00:36:01;100814.75;;;12.50;98.36
68107;BME280;54892;47.488;19.026;2022-10-30T00:39:05;100815.00;;;12.48;98.57
68107;BME280;54892;47.488;19.026;2022-10-30T00:42:11;100805.28;;;12.54;97.74
68107;BME280;54892;47.488;19.026;2022-10-30T00:45:15;100800.94;;;12.48;98.38
68107;BME280;54892;47.488;19.026;2022-10-30T00:48:21;100795.81;;;12.63;97.32
68107;BME280;54892;47.488;19.026;2022-10-30T00:51:27;100789.75;;;12.63;97.29
68107;BME280;54892;47.488;19.026;2022-10-30T00:54:33;100793.06;;;12.53;97.74
68107;BME280;54892;47.488;19.026;2022-10-30T00:57:38;100802.00;;;12.47;98.37
68107;BME280;54892;47.488;19.026;2022-10-30T01:00:45;100807.28;;;12.47;98.70
68107;BME280;54892;47.488;19.026;2022-10-30T01:03:53;100803.59;;;12.48;98.66
68107;BME280;54892;47.488;19.026;2022-10-30T01:07:01;100796.19;;;12.45;98.78
68107;BME280;54892;47.488;19.026;2022-10-30T01:10:10;100787.72;;;12.48;98.85
68107;BME280;54892;47.488;19.026;2022-10-30T01:13:14;100789.56;;;12.47;98.67
68107;BME280;54892;47.488;19.026;2022-10-30T01:16:30;100782.19;;;12.49;98.59
68107;BME280;54892;47.488;19.026;2022-10-30T01:19:43;100777.19;;;12.53;98.39
68107;BME280;54892;47.488;19.026;2022-10-30T01:22:58;100776.69;;;12.56;98.30
68107;BME280;54892;47.488;19.026;2022-10-30T01:26:11;100769.25;;;12.53;98.07
68107;BME280;54892;47.488;19.026;2022-10-30T01:29:26;100767.44;;;12.59;97.90
68107;BME280;54892;47.488;19.026;2022-10-30T01:32:44;100755.47;;;12.78;95.23
68107;BME280;54892;47.488;19.026;2022-10-30T01:35:54;100743.66;;;12.64;95.54
68107;BME280;54892;47.488;19.026;2022-10-30T01:39:03;100752.22;;;12.44;96.87
68107;BME280;54892;47.488;19.026;2022-10-30T01:42:44;100754.78;;;12.39;97.58
68107;BME280;54892;47.488;19.026;2022-10-30T01:46:13;100748.16;;;12.36;98.11
68107;BME280;54892;47.488;19.026;2022-10-30T01:49:32;100765.38;;;12.39;98.29
68107;BME280;54892;47.488;19.026;2022-10-30T01:52:42;100769.37;;;12.41;97.96
68107;BME280;54892;47.488;19.026;2022-10-30T01:55:57;100765.44;;;12.44;97.54
68107;BME280;54892;47.488;19.026;2022-10-30T01:59:08;100780.31;;;12.50;97.39
68107;BME280;54892;47.488;19.026;2022-10-30T02:02:13;100777.88;;;12.43;97.64
68107;BME280;54892;47.488;19.026;2022-10-30T02:05:20;100780.78;;;12.69;95.63
68107;BME280;54892;47.488;19.026;2022-10-30T02:08:27;100775.53;;;12.47;96.62
68107;BME280;54892;47.488;19.026;2022-10-30T02:11:31;100771.16;;;12.36;97.28
68107;BME280;54892;47.488;19.026;2022-10-30T02:14:41;100763.41;;;12.29;97.69
68107;BME280;54892;47.488;19.026;2022-10-30T02:17:46;100760.59;;;12.36;97.55
68107;BME280;54892;47.488;19.026;2022-10-30T02:20:51;100763.41;;;12.29;97.91
68107;BME280;54892;47.488;19.026;2022-10-30T02:23:54;100770.25;;;12.25;98.05
68107;BME280;54892;47.488;19.026;2022-10-30T02:26:57;100771.84;;;12.26;98.15
68107;BME280;54892;47.488;19.026;2022-10-30T02:30:01;100777.47;;;12.29;97.84
68107;BME280;54892;47.488;19.026;2022-10-30T02:33:04;100769.66;;;12.17;98.25
68107;BME280;54892;47.488;19.026;2022-10-30T02:36:09;100770.03;;;12.26;97.95
68107;BME280;54892;47.488;19.026;2022-10-30T02:39:12;100765.31;;;12.33;97.38
68107;BME280;54892;47.488;19.026;2022-10-30T02:42:16;100750.00;;;12.36;96.24
68107;BME280;54892;47.488;19.026;2022-10-30T02:45:19;100756.81;;;12.31;97.10
68107;BME280;54892;47.488;19.026;2022-10-30T02:48:23;100748.09;;;12.31;97.21
68107;BME280;54892;47.488;19.026;2022-10-30T02:51:27;100740.22;;;12.36;96.98
68107;BME280;54892;47.488;19.026;2022-10-30T02:54:32;100751.03;;;12.34;96.49
68107;BME280;54892;47.488;19.026;2022-10-30T02:57:36;100763.72;;;12.32;96.39
68107;BME280;54892;47.488;19.026;2022-10-30T03:00:39;100758.87;;;12.24;96.33
68107;BME280;54892;47.488;19.026;2022-10-30T03:03:42;100770.81;;;12.27;96.25
68107;BME280;54892;47.488;19.026;2022-10-30T03:06:48;100761.03;;;12.27;96.23
68107;BME280;54892;47.488;19.026;2022-10-30T03:09:51;100773.25;;;12.33;95.98
68107;BME280;54892;47.488;19.026;2022-10-30T03:12:57;100772.87;;;12.47;94.69
68107;BME280;54892;47.488;19.026;2022-10-30T03:16:01;100761.41;;;12.36;95.51
68107;BME280;54892;47.488;19.026;2022-10-30T03:19:04;100755.78;;;12.32;95.89
68107;BME280;54892;47.488;19.026;2022-10-30T03:22:09;100770.38;;;12.35;95.91
68107;BME280;54892;47.488;19.026;2022-10-30T03:25:12;100766.13;;;12.34;95.72
68107;BME280;54892;47.488;19.026;2022-10-30T03:28:16;100771.63;;;12.27;96.04
68107;BME280;54892;47.488;19.026;2022-10-30T03:31:19;100759.37;;;12.21;96.30
68107;BME280;54892;47.488;19.026;2022-10-30T03:34:22;100762.81;;;12.22;96.34
68107;BME280;54892;47.488;19.026;2022-10-30T03:37:27;100762.81;;;12.22;96.29
68107;BME280;54892;47.488;19.026;2022-10-30T03:40:30;100755.03;;;12.15;96.62
68107;BME280;54892;47.488;19.026;2022-10-30T03:43:34;100766.06;;;12.07;96.85
68107;BME280;54892;47.488;19.026;2022-10-30T03:46:37;100762.31;;;12.02;96.79
68107;BME280;54892;47.488;19.026;2022-10-30T03:49:40;100752.69;;;11.96;97.28
68107;BME280;54892;47.488;19.026;2022-10-30T03:52:45;100757.28;;;12.01;96.91
68107;BME280;54892;47.488;19.026;2022-10-30T03:55:49;100760.28;;;12.10;96.59
68107;BME280;54892;47.488;19.026;2022-10-30T03:58:52;100753.22;;;12.15;96.31
68107;BME280;54892;47.488;19.026;2022-10-30T04:01:56;100749.53;;;12.16;95.87
68107;BME280;54892;47.488;19.026;2022-10-30T04:05:00;100752.41;;;12.15;96.04
68107;BME280;54892;47.488;19.026;2022-10-30T04:08:06;100748.22;;;12.19;96.10
68107;BME280;54892;47.488;19.026;2022-10-30T04:11:10;100752.59;;;12.08;96.48
68107;BME280;54892;47.488;19.026;2022-10-30T04:14:13;100749.72;;;12.10;96.58
68107;BME280;54892;47.488;19.026;2022-10-30T04:17:17;100745.47;;;12.09;96.67
68107;BME280;54892;47.488;19.026;2022-10-30T04:20:20;100742.00;;;12.08;96.78
68107;BME280;54892;47.488;19.026;2022-10-30T04:23:26;100741.50;;;12.11;96.87
68107;BME280;54892;47.488;19.026;2022-10-30T04:26:28;100734.88;;;12.09;97.20
68107;BME280;54892;47.488;19.026;2022-10-30T04:29:32;100743.66;;;12.14;97.08
68107;BME280;54892;47.488;19.026;2022-10-30T04:32:35;100746.63;;;12.18;97.09
68107;BME280;54892;47.488;19.026;2022-10-30T04:35:39;100758.81;;;12.19;97.12
68107;BME280;54892;47.488;19.026;2022-10-30T04:38:44;100743.06;;;12.29;96.50
68107;BME280;54892;47.488;19.026;2022-10-30T04:41:47;100746.94;;;12.22;96.84
68107;BME280;54892;47.488;19.026;2022-10-30T04:44:50;100741.03;;;12.14;97.59
68107;BME280;54892;47.488;19.026;2022-10-30T04:47:59;100743.41;;;12.16;98.00
68107;BME280;54892;47.488;19.026;2022-10-30T04:51:02;100744.03;;;12.23;97.36
68107;BME280;54892;47.488;19.026;2022-10-30T04:54:07;100746.31;;;12.14;97.92
68107;BME280;54892;47.488;19.026;2022-10-30T04:57:10;100751.34;;;12.16;97.99
68107;BME280;54892;47.488;19.026;2022-10-30T05:00:14;100751.25;;;12.06;98.31
68107;BME280;54892;47.488;19.026;2022-10-30T05:03:19;100742.34;;;11.95;98.55
68107;BME280;54892;47.488;19.026;2022-10-30T05:06:24;100747.28;;;12.08;98.17
68107;BME280;54892;47.488;19.026;2022-10-30T05:09:29;100749.22;;;11.96;98.69
68107;BME280;54892;47.488;19.026;2022-10-30T05:12:33;100744.75;;;11.96;98.55
68107;BME280;54892;47.488;19.026;2022-10-30T05:15:36;100743.94;;;11.96;99.00
68107;BME280;54892;47.488;19.026;2022-10-30T05:18:39;100747.16;;;11.98;98.62
68107;BME280;54892;47.488;19.026;2022-10-30T05:21:43;100755.00;;;12.10;98.20
68107;BME280;54892;47.488;19.026;2022-10-30T05:24:49;100757.88;;;12.08;98.01
68107;BME280;54892;47.488;19.026;2022-10-30T05:27:56;100767.59;;;12.02;98.26
68107;BME280;54892;47.488;19.026;2022-10-30T05:31:00;100764.31;;;11.95;98.41
68107;BME280;54892;47.488;19.026;2022-10-30T05:34:03;100762.78;;;11.99;97.99
68107;BME280;54892;47.488;19.026;2022-10-30T05:37:06;100763.88;;;11.98;97.89
68107;BME280;54892;47.488;19.026;2022-10-30T05:40:11;100774.75;;;12.02;97.76
68107;BME280;54892;47.488;19.026;2022-10-30T05:43:15;100783.19;;;11.99;97.62
68107;BME280;54892;47.488;19.026;2022-10-30T05:46:18;100770.09;;;11.92;97.45
68107;BME280;54892;47.488;19.026;2022-10-30T05:49:22;100772.00;;;11.97;97.55
68107;BME280;54892;47.488;19.026;2022-10-30T05:52:26;100774.75;;;12.02;97.29
68107;BME280;54892;47.488;19.026;2022-10-30T05:55:31;100772.16;;;12.07;97.21
68107;BME280;54892;47.488;19.026;2022-10-30T05:58:35;100775.34;;;12.09;96.31
68107;BME280;54892;47.488;19.026;2022-10-30T06:01:38;100772.09;;;12.02;96.41
68107;BME280;54892;47.488;19.026;2022-10-30T06:04:42;100775.31;;;12.04;96.33
68107;BME280;54892;47.488;19.026;2022-10-30T06:07:45;100774.97;;;12.00;96.06
68107;BME280;54892;47.488;19.026;2022-10-30T06:10:52;100770.62;;;12.11;95.84
68107;BME280;54892;47.488;19.026;2022-10-30T06:13:56;100776.78;;;12.17;95.54
68107;BME280;54892;47.488;19.026;2022-10-30T06:16:59;100781.56;;;12.20;95.25
68107;BME280;54892;47.488;19.026;2022-10-30T06:20:03;100767.31;;;12.21;94.95
68107;BME280;54892;47.488;19.026;2022-10-30T06:23:08;100777.97;;;12.26;94.69
68107;BME280;54892;47.488;19.026;2022-10-30T06:26:13;100777.16;;;12.26;94.33
68107;BME280;54892;47.488;19.026;2022-10-30T06:29:17;100776.66;;;12.29;94.53
68107;BME280;54892;47.488;19.026;2022-10-30T06:32:20;100767.69;;;12.08;94.98
68107;BME280;54892;47.488;19.026;2022-10-30T06:35:23;100773.72;;;12.03;95.30
68107;BME280;54892;47.488;19.026;2022-10-30T06:38:26;100785.94;;;12.09;95.40
68107;BME280;54892;47.488;19.026;2022-10-30T06:41:31;100786.69;;;12.27;93.80
68107;BME280;54892;47.488;19.026;2022-10-30T06:44:35;100791.59;;;12.18;94.62
68107;BME280;54892;47.488;19.026;2022-10-30T06:47:39;100793.16;;;12.14;94.79
68107;BME280;54892;47.488;19.026;2022-10-30T06:50:42;100805.41;;;12.20;94.61
68107;BME280;54892;47.488;19.026;2022-10-30T06:53:46;100805.47;;;12.25;94.62
68107;BME280;54892;47.488;19.026;2022-10-30T06:56:51;100795.66;;;12.26;94.30
68107;BME280;54892;47.488;19.026;2022-10-30T06:59:54;100798.69;;;12.34;94.01
68107;BME280;54892;47.488;19.026;2022-10-30T07:02:59;100799.81;;;12.39;93.58
68107;BME280;54892;47.488;19.026;2022-10-30T07:06:03;100801.28;;;12.29;93.69
68107;BME280;54892;47.488;19.026;2022-10-30T07:09:07;100795.81;;;12.36;93.71
68107;BME280;54892;47.488;19.026;2022-10-30T07:12:12;100803.31;;;12.44;93.44
68107;BME280;54892;47.488;19.026;2022-10-30T07:15:16;100800.94;;;12.48;93.37
68107;BME280;54892;47.488;19.026;2022-10-30T07:18:20;100795.91;;;12.46;93.22
68107;BME280;54892;47.488;19.026;2022-10-30T07:21:24;100790.91;;;12.50;92.99
68107;BME280;54892;47.488;19.026;2022-10-30T07:24:28;100797.06;;;12.56;92.97
68107;BME280;54892;47.488;19.026;2022-10-30T07:27:40;100790.44;;;12.53;92.88
68107;BME280;54892;47.488;19.026;2022-10-30T07:30:43;100801.50;;;12.50;92.72
68107;BME280;54892;47.488;19.026;2022-10-30T07:33:47;100798.66;;;12.57;92.69
68107;BME280;54892;47.488;19.026;2022-10-30T07:36:50;100795.44;;;12.77;91.11
68107;BME280;54892;47.488;19.026;2022-10-30T07:39:53;100797.91;;;12.61;92.25
68107;BME280;54892;47.488;19.026;2022-10-30T07:42:59;100804.72;;;12.52;92.91
68107;BME280;54892;47.488;19.026;2022-10-30T07:46:04;100810.63;;;12.59;92.90
68107;BME280;54892;47.488;19.026;2022-10-30T07:49:07;100813.13;;;12.71;91.84
68107;BME280;54892;47.488;19.026;2022-10-30T07:52:10;100809.72;;;12.48;93.21
68107;BME280;54892;47.488;19.026;2022-10-30T07:55:15;100813.28;;;12.59;92.79
68107;BME280;54892;47.488;19.026;2022-10-30T07:58:19;100816.72;;;12.60;92.32
68107;BME280;54892;47.488;19.026;2022-10-30T08:01:23;100814.00;;;12.55;92.94
68107;BME280;54892;47.488;19.026;2022-10-30T08:04:26;100809.59;;;12.60;93.05
68107;BME280;54892;47.488;19.026;2022-10-30T08:07:29;100814.50;;;12.74;92.54
68107;BME280;54892;47.488;19.026;2022-10-30T08:10:32;100812.34;;;12.71;92.85
68107;BME280;54892;47.488;19.026;2022-10-30T08:13:37;100810.72;;;12.70;92.72
68107;BME280;54892;47.488;19.026;2022-10-30T08:16:41;100817.13;;;12.74;92.47
68107;BME280;54892;47.488;19.026;2022-10-30T08:19:44;100818.22;;;12.78;92.44
68107;BME280;54892;47.488;19.026;2022-10-30T08:22:48;100814.59;;;12.84;92.31
68107;BME280;54892;47.488;19.026;2022-10-30T08:25:52;100808.78;;;12.87;91.53
68107;BME280;54892;47.488;19.026;2022-10-30T08:28:56;100818.56;;;12.87;91.61
68107;BME280;54892;47.488;19.026;2022-10-30T08:31:59;100816.06;;;13.02;90.82
68107;BME280;54892;47.488;19.026;2022-10-30T08:35:03;100816.53;;;12.94;91.07
68107;BME280;54892;47.488;19.026;2022-10-30T08:38:06;100821.00;;;12.88;91.63
68107;BME280;54892;47.488;19.026;2022-10-30T08:41:10;100818.09;;;12.90;92.00
68107;BME280;54892;47.488;19.026;2022-10-30T08:44:15;100822.12;;;12.98;91.76
68107;BME280;54892;47.488;19.026;2022-10-30T08:47:18;100824.13;;;12.85;91.61
68107;BME280;54892;47.488;19.026;2022-10-30T08:50:22;100817.88;;;12.97;91.09
68107;BME280;54892;47.488;19.026;2022-10-30T08:53:25;100811.81;;;13.01;90.65
68107;BME280;54892;47.488;19.026;2022-10-30T08:56:29;100814.72;;;13.00;91.43
68107;BME280;54892;47.488;19.026;2022-10-30T08:59:34;100798.63;;;13.06;90.96
68107;BME280;54892;47.488;19.026;2022-10-30T09:02:37;100801.12;;;13.18;89.04
68107;BME280;54892;47.488;19.026;2022-10-30T09:05:41;100811.28;;;13.32;89.13
68107;BME280;54892;47.488;19.026;2022-10-30T09:08:44;100814.94;;;13.20;89.18
68107;BME280;54892;47.488;19.026;2022-10-30T09:11:48;100816.91;;;13.08;89.86
68107;BME280;54892;47.488;19.026;2022-10-30T09:14:53;100818.50;;;13.04;90.65
68107;BME280;54892;47.488;19.026;2022-10-30T09:17:56;100811.56;;;13.30;88.85
68107;BME280;54892;47.488;19.026;2022-10-30T09:21:00;100808.84;;;13.25;89.32
68107;BME280;54892;47.488;19.026;2022-10-30T09:24:05;100805.09;;;13.21;89.13
68107;BME280;54892;47.488;19.026;2022-10-30T09:27:09;100810.34;;;13.16;90.05
68107;BME280;54892;47.488;19.026;2022-10-30T09:30:14;100814.66;;;13.22;90.15
68107;BME280;54892;47.488;19.026;2022-10-30T09:33:18;100819.84;;;13.39;88.57
68107;BME280;54892;47.488;19.026;2022-10-30T09:36:21;100819.81;;;13.34;88.66
68107;BME280;54892;47.488;19.026;2022-10-30T09:39:25;100812.56;;;13.24;89.28
68107;BME280;54892;47.488;19.026;2022-10-30T09:42:40;100808.59;;;13.27;89.50
68107;BME280;54892;47.488;19.026;2022-10-30T09:45:55;100806.34;;;13.40;89.35
68107;BME280;54892;47.488;19.026;2022-10-30T09:49:23;100815.16;;;13.46;89.43
68107;BME280;54892;47.488;19.026;2022-10-30T09:52:34;100808.84;;;13.52;89.43
68107;BME280;54892;47.488;19.026;2022-10-30T09:55:48;100801.22;;;13.66;88.19
68107;BME280;54892;47.488;19.026;2022-10-30T09:59:00;100800.41;;;13.61;88.43
68107;BME280;54892;47.488;19.026;2022-10-30T10:02:22;100795.44;;;13.75;87.01
68107;BME280;54892;47.488;19.026;2022-10-30T10:05:34;100785.87;;;13.74;86.68
68107;BME280;54892;47.488;19.026;2022-10-30T10:08:46;100794.69;;;13.42;89.48
68107;BME280;54892;47.488;19.026;2022-10-30T10:11:54;100801.88;;;13.46;89.19
68107;BME280;54892;47.488;19.026;2022-10-30T10:15:00;100791.06;;;13.53;88.82
68107;BME280;54892;47.488;19.026;2022-10-30T10:18:13;100788.00;;;13.72;88.42
68107;BME280;54892;47.488;19.026;2022-10-30T10:21:23;100784.00;;;13.69;88.94
68107;BME280;54892;47.488;19.026;2022-10-30T10:24:29;100785.16;;;13.83;87.46
68107;BME280;54892;47.488;19.026;2022-10-30T10:27:45;100776.66;;;13.81;87.36
68107;BME280;54892;47.488;19.026;2022-10-30T10:30:55;100780.91;;;13.88;86.62
68107;BME280;54892;47.488;19.026;2022-10-30T10:34:24;100776.66;;;13.81;87.38
68107;BME280;54892;47.488;19.026;2022-10-30T10:37:37;100775.09;;;13.85;87.43
68107;BME280;54892;47.488;19.026;2022-10-30T10:40:49;100779.31;;;13.86;87.85
68107;BME280;54892;47.488;19.026;2022-10-30T10:44:14;100775.94;;;14.01;86.53
68107;BME280;54892;47.488;19.026;2022-10-30T10:47:36;100775.59;;;13.88;86.68
68107;BME280;54892;47.488;19.026;2022-10-30T10:50:47;100778.47;;;13.76;88.00
68107;BME280;54892;47.488;19.026;2022-10-30T10:53:54;100776.66;;;13.81;88.25
68107;BME280;54892;47.488;19.026;2022-10-30T10:56:58;100772.16;;;13.87;87.81
68107;BME280;54892;47.488;19.026;2022-10-30T11:00:05;100765.03;;;13.93;87.70
68107;BME280;54892;47.488;19.026;2022-10-30T11:03:11;100767.47;;;14.10;85.93
68107;BME280;54892;47.488;19.026;2022-10-30T11:06:24;100756.59;;;14.06;86.46
68107;BME280;54892;47.488;19.026;2022-10-30T11:09:29;100753.94;;;14.01;86.93
68107;BME280;54892;47.488;19.026;2022-10-30T11:12:34;100745.72;;;14.13;85.99
68107;BME280;54892;47.488;19.026;2022-10-30T11:15:45;100742.00;;;14.09;86.19
68107;BME280;54892;47.488;19.026;2022-10-30T11:18:51;100751.31;;;14.11;86.40
68107;BME280;54892;47.488;19.026;2022-10-30T11:21:59;100749.44;;;14.12;86.88
68107;BME280;54892;47.488;19.026;2022-10-30T11:25:18;100750.03;;;14.24;85.97
68107;BME280;54892;47.488;19.026;2022-10-30T11:28:34;100738.00;;;14.06;86.71
68107;BME280;54892;47.488;19.026;2022-10-30T11:31:39;100750.75;;;14.09;86.33
68107;BME280;54892;47.488;19.026;2022-10-30T11:34:42;100747.56;;;14.07;86.67
68107;BME280;54892;47.488;19.026;2022-10-30T11:37:48;100747.03;;;14.05;87.85
68107;BME280;54892;47.488;19.026;2022-10-30T11:40:52;100741.47;;;14.07;86.64
68107;BME280;54892;47.488;19.026;2022-10-30T11:43:56;100739.91;;;14.16;86.76
68107;BME280;54892;47.488;19.026;2022-10-30T11:47:00;100737.50;;;14.14;87.74
68107;BME280;54892;47.488;19.026;2022-10-30T11:50:06;100735.94;;;14.24;86.98
68107;BME280;54892;47.488;19.026;2022-10-30T11:53:22;100733.31;;;14.34;85.70
68107;BME280;54892;47.488;19.026;2022-10-30T11:56:33;100728.53;;;14.31;86.33
68107;BME280;54892;47.488;19.026;2022-10-30T11:59:37;100724.84;;;14.42;85.81
68107;BME280;54892;47.488;19.026;2022-10-30T12:02:41;100712.06;;;14.39;85.86
68107;BME280;54892;47.488;19.026;2022-10-30T12:05:46;100722.44;;;14.41;86.58
68107;BME280;54892;47.488;19.026;2022-10-30T12:09:03;100722.97;;;14.48;85.92
68107;BME280;54892;47.488;19.026;2022-10-30T12:12:20;100716.88;;;14.48;85.97
68107;BME280;54892;47.488;19.026;2022-10-30T12:15:26;100716.13;;;14.73;83.87
68107;BME280;54892;47.488;19.026;2022-10-30T12:18:29;100718.47;;;14.49;85.29
68107;BME280;54892;47.488;19.026;2022-10-30T12:21:36;100714.22;;;14.53;85.22
68107;BME280;54892;47.488;19.026;2022-10-30T12:24:42;100716.88;;;14.53;85.57
68107;BME280;54892;47.488;19.026;2022-10-30T12:27:47;100714.22;;;14.53;85.65
68107;BME280;54892;47.488;19.026;2022-10-30T12:30:51;100710.53;;;14.59;85.24
68107;BME280;54892;47.488;19.026;2022-10-30T12:34:04;100712.38;;;14.53;85.99
68107;BME280;54892;47.488;19.026;2022-10-30T12:37:18;100696.69;;;14.57;86.17
68107;BME280;54892;47.488;19.026;2022-10-30T12:40:29;100691.66;;;14.60;86.13
68107;BME280;54892;47.488;19.026;2022-10-30T12:43:34;100699.91;;;14.69;85.69
68107;BME280;54892;47.488;19.026;2022-10-30T12:46:41;100718.50;;;14.59;86.02
68107;BME280;54892;47.488;19.026;2022-10-30T12:49:50;100718.53;;;14.69;84.69
68107;BME280;54892;47.488;19.026;2022-10-30T12:52:59;100724.03;;;14.57;85.17
68107;BME280;54892;47.488;19.026;2022-10-30T12:56:08;100725.37;;;14.55;85.79
68107;BME280;54892;47.488;19.026;2022-10-30T12:59:25;100717.12;;;14.56;86.03
68107;BME280;54892;47.488;19.026;2022-10-30T13:02:39;100718.75;;;14.62;85.20
68107;BME280;54892;47.488;19.026;2022-10-30T13:05:47;100714.75;;;14.55;86.00
68107;BME280;54892;47.488;19.026;2022-10-30T13:09:02;100710.25;;;14.60;85.92
68107;BME280;54892;47.488;19.026;2022-10-30T13:12:11;100707.59;;;14.55;86.34
68107;BME280;54892;47.488;19.026;2022-10-30T13:15:20;100708.94;;;14.63;86.09
68107;BME280;54892;47.488;19.026;2022-10-30T13:18:26;100705.19;;;14.59;86.37
68107;BME280;54892;47.488;19.026;2022-10-30T13:21:37;100703.59;;;14.58;85.78
68107;BME280;54892;47.488;19.026;2022-10-30T13:24:52;100703.06;;;14.66;85.33
68107;BME280;54892;47.488;19.026;2022-10-30T13:28:04;100706.25;;;14.58;85.08
68107;BME280;54892;47.488;19.026;2022-10-30T13:31:18;100699.09;;;14.64;84.95
68107;BME280;54892;47.488;19.026;2022-10-30T13:34:32;100694.81;;;14.57;84.94
68107;BME280;54892;47.488;19.026;2022-10-30T13:37:42;100700.69;;;14.54;84.93
68107;BME280;54892;47.488;19.026;2022-10-30T13:40:51;100717.94;;;14.52;85.36
68107;BME280;54892;47.488;19.026;2022-10-30T13:44:04;100705.16;;;14.49;85.87
68107;BME280;54892;47.488;19.026;2022-10-30T13:47:22;100714.47;;;14.41;86.63
68107;BME280;54892;47.488;19.026;2022-10-30T13:50:36;100707.31;;;14.41;87.01
68107;BME280;54892;47.488;19.026;2022-10-30T13:53:48;100709.44;;;14.50;86.31
68107;BME280;54892;47.488;19.026;2022-10-30T13:57:00;100696.44;;;14.64;85.26
68107;BME280;54892;47.488;19.026;2022-10-30T14:00:14;100698.53;;;14.46;86.49
68107;BME280;54892;47.488;19.026;2022-10-30T14:03:28;100704.66;;;14.41;86.94
68107;BME280;54892;47.488;19.026;2022-10-30T14:06:40;100695.09;;;14.66;85.34
68107;BME280;54892;47.488;19.026;2022-10-30T14:09:53;100702.53;;;14.49;85.80
68107;BME280;54892;47.488;19.026;2022-10-30T14:13:16;100696.69;;;14.46;85.87
68107;BME280;54892;47.488;19.026;2022-10-30T14:16:40;100703.03;;;14.30;86.62
68107;BME280;54892;47.488;19.026;2022-10-30T14:20:21;100706.22;;;14.37;86.35
68107;BME280;54892;47.488;19.026;2022-10-30T14:23:31;100713.12;;;14.28;86.81
68107;BME280;54892;47.488;19.026;2022-10-30T14:26:36;100718.94;;;14.20;87.57
68107;BME280;54892;47.488;19.026;2022-10-30T14:29:49;100712.59;;;14.26;87.54
68107;BME280;54892;47.488;19.026;2022-10-30T14:32:55;100721.34;;;14.31;87.20
68107;BME280;54892;47.488;19.026;2022-10-30T14:36:16;100717.91;;;14.36;86.75
68107;BME280;54892;47.488;19.026;2022-10-30T14:39:27;100722.16;;;14.32;86.26
68107;BME280;54892;47.488;19.026;2022-10-30T14:42:38;100716.84;;;14.32;86.54
68107;BME280;54892;47.488;19.026;2022-10-30T14:45:46;100707.28;;;14.26;87.31
68107;BME280;54892;47.488;19.026;2022-10-30T14:49:02;100705.13;;;14.18;87.69
68107;BME280;54892;47.488;19.026;2022-10-30T14:52:16;100701.13;;;14.15;88.26
68107;BME280;54892;47.488;19.026;2022-10-30T14:55:27;100684.94;;;14.22;87.69
68107;BME280;54892;47.488;19.026;2022-10-30T14:58:33;100686.28;;;14.29;87.33
68107;BME280;54892;47.488;19.026;2022-10-30T15:01:44;100688.16;;;14.34;87.06
68107;BME280;54892;47.488;19.026;2022-10-30T15:05:15;100683.66;;;14.24;87.65
68107;BME280;54892;47.488;19.026;2022-10-30T15:08:53;100696.88;;;14.09;88.31
68107;BME280;54892;47.488;19.026;2022-10-30T15:12:21;100682.28;;;14.11;88.36
68107;BME280;54892;47.488;19.026;2022-10-30T15:15:26;100683.38;;;14.15;88.03
68107;BME280;54892;47.488;19.026;2022-10-30T15:18:29;100687.31;;;14.03;88.57
68107;BME280;54892;47.488;19.026;2022-10-30T15:21:42;100674.25;;;13.91;89.35
68107;BME280;54892;47.488;19.026;2022-10-30T15:24:46;100679.56;;;13.85;89.80
68107;BME280;54892;47.488;19.026;2022-10-30T15:27:51;100684.03;;;13.80;90.29
68107;BME280;54892;47.488;19.026;2022-10-30T15:30:58;100681.63;;;13.78;90.56
68107;BME280;54892;47.488;19.026;2022-10-30T15:34:18;100692.50;;;13.72;90.88
68107;BME280;54892;47.488;19.026;2022-10-30T15:37:23;100685.88;;;13.69;91.23
68107;BME280;54892;47.488;19.026;2022-10-30T15:40:27;100693.81;;;13.74;90.48
68107;BME280;54892;47.488;19.026;2022-10-30T15:43:33;100692.72;;;13.65;90.81
68107;BME280;54892;47.488;19.026;2022-10-30T15:46:38;100690.31;;;13.63;90.90
68107;BME280;54892;47.488;19.026;2022-10-30T15:49:46;100692.38;;;13.51;91.74
68107;BME280;54892;47.488;19.026;2022-10-30T15:52:52;100693.75;;;13.53;91.77
68107;BME280;54892;47.488;19.026;2022-10-30T15:55:57;100694.13;;;13.35;92.72
68107;BME280;54892;47.488;19.026;2022-10-30T15:59:03;100696.62;;;13.47;92.22
68107;BME280;54892;47.488;19.026;2022-10-30T16:02:18;100691.94;;;13.27;93.14
68107;BME280;54892;47.488;19.026;2022-10-30T16:05:23;100693.59;;;13.33;93.09
68107;BME280;54892;47.488;19.026;2022-10-30T16:08:28;100693.09;;;13.36;92.58